Toast, North Carolina
Current Conditions -  °F | °C
As of 11:35 AM on Wednesday 22 Oct 2014 (Local Time) from KMWK Reporting Station
Clear Clear  
Wind Chill: 57°   Ceiling: Unl
Heat Index: 57°   Visibility: 10mi
Dew Point: 41°   Wind: 10mph
Humidity: 55%   Direction: 350°N
Pressure: 30.1"   Gusts: 26mph
Location:  36.5°N, 80.63°W
Report Text: KMWK 221535Z AUTO 35009G23KT 310V030 10SM CLR 14/05 A3010 RMK AO2 T01400052
Loading
Personal Weather Stations






























Interactive Weather Map
Tropical Storm Tracking
New forecast layout! Learn more

10-Day Weather Forecast

Advertisements
Track Severe Weather on mobile